Time;durP1;ratioP1;P1;durP2;ratioP2;P2;SDS_P1;SDS_P2;PMS_P1;PMS_P2;Temp;Humidity;BMP_temperature;BMP_pressure;BME280_temperature;BME280_humidity;BME280_pressure;Samples;Min_cycle;Max_cycle;Signal;HPM_P1;HPM_P2
2022/01/17 00:55:40;;;;;;;14.23;8.05;;;;;;;-1.76;90.91;61824.78;4914529;29;20221;-76
2022/01/17 02:06:47;;;;;;;11.15;7.20;;;;;;;-1.99;93.88;61800.75;5019933;28;20479;-76
2022/01/17 02:39:52;;;;;;;15.30;8.38;;;;;;;-2.48;98.86;61746.19;1409502;26;21273;-76
2022/01/17 04:18:48;;;;;;;11.98;7.80;;;;;;;-2.56;98.00;61738.53;4904594;29;20216;-76
2022/01/17 04:35:26;;;;;;;16.02;8.15;;;;;;;-2.42;96.15;61752.31;4763085;29;20219;-76
2022/01/17 04:38:52;;;;;;;17.67;9.40;;;;;;;-2.35;96.19;61759.97;4788236;30;20222;-76
2022/01/17 04:46:06;;;;;;;;;;;;;;;;;;;;;
2022/01/17 04:56:47;;;;;;;8.60;5.70;;;;;;;-2.42;95.04;61750.31;4881077;29;20268;-75
2022/01/17 05:23:45;;;;;;;6.50;5.05;;;;;;;-1.97;94.42;61802.81;4939301;29;20225;-77
2022/01/17 05:43:56;;;;;;;20.70;9.13;;;;;;;-2.20;93.81;61774.28;4980193;28;20267;-76
2022/01/17 05:57:31;;;;;;;;;;;;;;;;;;;;;
2022/01/17 06:53:58;;;;;;;16.95;10.13;;;;;;;-1.93;96.04;61804.91;4943944;29;20412;-76
2022/01/17 06:56:55;;;;;;;20.08;11.50;;;;;;;-1.94;95.49;61806.38;4887307;29;20227;-77
2022/01/17 07:06:43;;;;;;;28.88;14.57;;;;;;;-1.60;93.37;61838.16;4862299;29;20251;-76
2022/01/17 07:26:06;;;;;;;23.77;12.57;;;;;;;0.03;84.55;62002.56;4925062;29;20243;-75
2022/01/17 07:42:02;;;;;;;26.15;14.10;;;;;;;1.34;65.65;62133.34;4891062;29;20230;-76
2022/01/17 07:45:36;;;;;;;34.28;14.25;;;;;;;1.16;66.06;62117.91;4939888;29;20209;-75
2022/01/17 08:24:16;;;;;;;11.23;6.90;;;;;;;2.21;69.52;62225.16;5004013;28;20246;-76
2022/01/17 08:27:14;;;;;;;8.18;3.40;;;;;;;2.70;65.38;62276.97;5003455;28;20239;-77
2022/01/17 08:29:58;;;;;;;4.30;2.90;;;;;;;2.98;60.74;62308.78;4998842;28;20254;-76
2022/01/17 08:33:15;;;;;;;;;;;;;;;;;;;;;
2022/01/17 08:45:48;;;;;;;5.60;2.15;;;;;;;4.14;53.43;62427.56;5000794;28;20210;-77
2022/01/17 08:48:53;;;;;;;2.00;1.90;;;;;;;4.10;53.17;62420.94;4977750;28;20250;-78
2022/01/17 09:05:01;;;;;;;2.60;2.40;;;;;;;4.20;52.61;62426.19;4950594;29;20191;-77
2022/01/17 09:07:28;;;;;;;2.95;2.60;;;;;;;4.12;51.64;62415.44;5015292;28;20421;-76
2022/01/17 09:09:54;;;;;;;2.33;1.65;;;;;;;4.24;51.43;62432.81;5005479;28;20411;-77
2022/01/17 09:12:21;;;;;;;1.80;1.70;;;;;;;4.39;49.06;62450.25;5021320;28;21217;-78
2022/01/17 09:14:48;;;;;;;5.25;2.17;;;;;;;4.68;48.70;62483.13;5016219;28;20389;-77
2022/01/17 09:17:15;;;;;;;10.32;5.63;;;;;;;4.78;54.85;62489.88;5009170;28;20302;-77
2022/01/17 09:19:43;;;;;;;10.20;4.07;;;;;;;4.66;56.00;62480.56;5012369;28;20254;-76
2022/01/17 09:22:11;;;;;;;9.65;2.10;;;;;;;4.61;48.42;62473.41;5005484;28;20270;-75
2022/01/17 09:24:40;;;;;;;2.80;1.90;;;;;;;4.63;47.34;62474.94;5000068;28;20234;-77
2022/01/17 09:27:08;;;;;;;2.22;1.50;;;;;;;4.51;48.91;62463.13;5011457;28;20234;-77
2022/01/17 09:29:35;;;;;;;3.75;1.73;;;;;;;4.58;45.87;62472.84;5024881;28;20406;-76
2022/01/17 09:32:02;;;;;;;1.55;1.35;;;;;;;4.62;45.51;62471.41;5019894;28;20370;-76
2022/01/17 09:34:29;;;;;;;1.83;1.73;;;;;;;4.25;48.93;62433.31;5005881;28;20195;-76
2022/01/17 09:36:56;;;;;;;2.83;2.15;;;;;;;4.22;48.47;62427.72;5005110;28;20266;-76
2022/01/17 09:39:24;;;;;;;2.75;2.17;;;;;;;4.25;49.41;62438.34;5019819;28;20314;-76
2022/01/17 09:41:51;;;;;;;3.63;2.97;;;;;;;3.81;52.77;62388.06;5017436;28;20239;-77
2022/01/17 09:44:18;;;;;;;2.65;2.25;;;;;;;3.92;51.17;62401.91;5006921;28;20203;-76
2022/01/17 09:46:48;;;;;;;2.35;1.98;;;;;;;3.93;51.75;62405.44;5015721;28;20291;-76
2022/01/17 09:49:22;;;;;;;2.88;2.17;;;;;;;3.90;52.43;62397.31;5003793;28;20212;-77
2022/01/17 09:52:06;;;;;;;3.00;2.53;;;;;;;3.88;53.53;62395.78;5004694;28;20295;-76
2022/01/17 09:54:36;;;;;;;2.28;2.13;;;;;;;3.69;54.35;62381.28;5004967;28;20195;-75
2022/01/17 09:57:08;;;;;;;2.22;2.10;;;;;;;3.54;55.40;62368.88;5004360;28;20262;-77
2022/01/17 09:59:37;;;;;;;2.85;2.58;;;;;;;3.62;55.52;62373.56;5003417;28;20195;-76
2022/01/17 10:02:05;;;;;;;3.38;3.03;;;;;;;3.49;57.10;62358.69;5004267;28;20298;-77
2022/01/17 10:04:32;;;;;;;7.10;2.65;;;;;;;3.59;57.60;62367.97;5004932;28;20258;-76
2022/01/17 10:07:00;;;;;;;5.57;2.40;;;;;;;3.60;57.63;62366.97;5003978;28;20239;-77
2022/01/17 10:09:28;;;;;;;5.63;3.75;;;;;;;3.73;57.97;62385.38;5003653;28;20282;-76
2022/01/17 10:12:06;;;;;;;3.45;2.53;;;;;;;3.57;58.21;62365.91;5006461;28;20270;-76
2022/01/17 10:14:37;;;;;;;5.90;3.40;;;;;;;3.57;58.71;62366.41;5002078;28;20211;-77
2022/01/17 10:17:06;;;;;;;4.80;2.88;;;;;;;3.66;58.98;62372.63;5004912;28;20238;-77
2022/01/17 10:19:33;;;;;;;4.38;3.50;;;;;;;3.68;59.59;62379.72;5004843;28;20262;-77
2022/01/17 10:22:02;;;;;;;8.27;4.43;;;;;;;3.45;66.94;62357.09;5003460;28;20302;-78
2022/01/17 10:24:37;;;;;;;4.53;3.67;;;;;;;3.16;73.26;62326.75;5011711;28;20523;-77
2022/01/17 10:35:27;;;;;;;4.95;4.45;;;;;;;2.70;83.13;62280.00;5003932;28;20217;-77
2022/01/17 10:38:06;;;;;;;9.35;5.13;;;;;;;2.72;82.61;62279.03;5003915;28;20215;-77
2022/01/17 10:40:36;;;;;;;5.68;4.35;;;;;;;2.92;81.77;62300.09;5003590;28;20234;-76
2022/01/17 10:43:06;;;;;;;6.50;4.18;;;;;;;2.72;81.65;62277.03;5003819;28;20203;-75
2022/01/17 10:45:41;;;;;;;6.25;5.75;;;;;;;2.76;82.41;62283.66;5000634;28;20223;-74
2022/01/17 10:48:08;;;;;;;5.00;3.00;;;;;;;3.00;82.25;62305.81;5000119;28;20238;-76
2022/01/17 10:50:38;;;;;;;14.52;4.43;;;;;;;3.03;80.82;62308.38;5003631;28;20229;-76
2022/01/17 10:53:11;;;;;;;5.35;4.85;;;;;;;3.01;81.90;62308.84;5000644;28;20250;-75
2022/01/17 10:55:41;;;;;;;7.78;5.53;;;;;;;2.92;81.85;62304.59;5001846;28;20310;-76
2022/01/17 10:58:11;;;;;;;5.20;3.72;;;;;;;3.15;81.60;62323.75;5009385;28;20208;-76
2022/01/17 11:00:40;;;;;;;4.18;3.78;;;;;;;3.27;79.40;62335.56;5007327;28;20532;-75
2022/01/17 11:03:11;;;;;;;7.47;4.47;;;;;;;3.44;78.02;62356.06;5002180;28;20215;-76
2022/01/17 11:05:39;;;;;;;5.38;4.85;;;;;;;3.65;75.59;62376.63;5021181;28;20242;-75
2022/01/17 11:08:08;;;;;;;4.20;2.80;;;;;;;3.80;73.01;62392.56;5032114;28;20238;-76
2022/01/17 11:10:38;;;;;;;6.30;4.68;;;;;;;4.12;71.35;62425.50;5019864;28;20224;-76
2022/01/17 11:13:07;;;;;;;7.82;4.40;;;;;;;4.31;68.60;62444.53;5009451;28;20203;-77
2022/01/17 11:15:37;;;;;;;5.40;3.10;;;;;;;4.53;63.15;62467.19;5004338;28;20219;-75
2022/01/17 11:18:11;;;;;;;3.67;3.38;;;;;;;4.73;64.09;62485.25;5003356;28;20483;-77
2022/01/17 11:20:37;;;;;;;6.25;4.53;;;;;;;4.62;64.74;62474.44;5011957;28;20254;-77
2022/01/17 11:23:04;;;;;;;3.40;3.15;;;;;;;4.72;61.78;62481.69;5010273;28;20226;-77
2022/01/17 11:25:33;;;;;;;3.67;3.22;;;;;;;4.67;61.46;62476.56;5025492;28;20231;-76
2022/01/17 11:28:02;;;;;;;3.08;2.85;;;;;;;4.87;60.25;62499.16;5007844;28;20249;-77
2022/01/17 11:30:29;;;;;;;3.75;3.42;;;;;;;5.02;59.56;62514.59;5006560;28;20227;-77
2022/01/17 11:32:59;;;;;;;3.55;2.03;;;;;;;5.06;56.92;62519.22;5012974;28;20203;-78
2022/01/17 11:35:26;;;;;;;4.43;3.10;;;;;;;4.80;58.49;62489.41;5004184;28;20219;-76
2022/01/17 11:37:56;;;;;;;4.18;2.10;;;;;;;4.73;58.31;62483.22;5009709;28;20559;-75
2022/01/17 11:40:28;;;;;;;2.95;2.35;;;;;;;4.75;58.57;62484.78;5006488;28;20246;-76
2022/01/17 11:42:55;;;;;;;3.13;2.83;;;;;;;4.49;59.34;62458.00;4988546;28;20214;-77
2022/01/17 11:45:36;;;;;;;6.38;3.08;;;;;;;4.77;59.68;62493.88;5002133;28;20223;-76
2022/01/17 11:48:17;;;;;;;4.28;2.97;;;;;;;4.95;57.98;62509.91;5004167;28;20270;-76
2022/01/17 11:50:47;;;;;;;3.10;2.80;;;;;;;4.98;57.30;62508.47;5000511;28;20250;-77
2022/01/17 11:53:40;;;;;;;2.53;2.33;;;;;;;4.89;56.86;62499.19;4998513;28;20196;-76
2022/01/17 11:56:07;;;;;;;2.15;2.03;;;;;;;4.56;58.08;62470.25;5004219;28;20384;-76
2022/01/17 11:58:43;;;;;;;2.35;2.15;;;;;;;4.51;59.11;62465.63;5014780;28;20203;-76
2022/01/17 12:01:16;;;;;;;2.05;1.95;;;;;;;4.66;58.02;62476.03;5006705;28;20231;-76
2022/01/17 12:03:46;;;;;;;2.33;2.20;;;;;;;4.66;59.59;62483.59;5026983;28;20424;-77
2022/01/17 12:06:28;;;;;;;2.38;2.17;;;;;;;4.72;59.33;62479.16;5027029;28;20218;-77
2022/01/17 12:09:19;;;;;;;3.15;2.85;;;;;;;4.80;59.41;62489.41;5015365;28;20211;-76
2022/01/17 12:11:48;;;;;;;4.05;2.28;;;;;;;4.79;58.35;62488.91;5012441;28;20227;-77
2022/01/17 12:14:27;;;;;;;2.17;1.98;;;;;;;4.65;58.25;62475.00;5003074;28;20261;-76
2022/01/17 12:16:55;;;;;;;5.05;2.63;;;;;;;4.60;58.58;62477.44;5003010;28;20278;-76
2022/01/17 12:19:23;;;;;;;1.98;1.85;;;;;;;4.64;57.55;62473.47;5006722;28;20402;-76
2022/01/17 12:22:05;;;;;;;2.58;2.05;;;;;;;4.59;58.02;62471.34;5007113;28;20227;-76
2022/01/17 12:24:41;;;;;;;3.25;2.60;;;;;;;4.61;57.88;62473.41;4997454;28;20266;-77
2022/01/17 12:27:18;;;;;;;3.03;2.65;;;;;;;4.76;58.03;62488.34;5001324;28;20234;-76
2022/01/17 12:29:52;;;;;;;1.92;1.83;;;;;;;4.54;58.57;62468.19;5003926;28;20266;-76
2022/01/17 12:32:47;;;;;;;4.10;2.95;;;;;;;4.45;59.00;62459.44;5003617;28;20243;-77
2022/01/17 12:35:27;;;;;;;3.42;3.08;;;;;;;4.44;59.56;62455.38;5000823;28;20259;-76
2022/01/17 12:38:04;;;;;;;4.78;3.20;;;;;;;4.42;60.25;62450.81;4994916;28;20203;-77
2022/01/17 12:40:33;;;;;;;8.05;3.47;;;;;;;4.73;58.95;62483.22;5003482;28;20535;-76
2022/01/17 12:43:02;;;;;;;6.50;2.92;;;;;;;4.80;57.56;62489.41;5005829;28;20366;-77
2022/01/17 12:45:32;;;;;;;2.58;2.30;;;;;;;4.93;56.70;62508.38;5006915;28;20691;-76
2022/01/17 12:48:01;;;;;;;3.92;2.17;;;;;;;5.05;56.19;62515.16;5006147;28;20575;-77
2022/01/17 12:50:32;;;;;;;4.28;2.85;;;;;;;4.89;57.83;62498.66;4988718;28;20386;-77
2022/01/17 12:53:01;;;;;;;5.30;3.40;;;;;;;4.79;58.93;62490.91;4993978;28;20275;-77
2022/01/17 12:55:37;;;;;;;4.40;3.17;;;;;;;4.82;58.95;62497.03;5004918;28;20234;-76
2022/01/17 12:58:17;;;;;;;3.13;2.80;;;;;;;5.01;57.58;62516.06;5007182;28;20242;-76
2022/01/17 13:00:50;;;;;;;3.40;3.10;;;;;;;5.08;56.31;62523.28;5005972;28;20223;-78
2022/01/17 13:03:18;;;;;;;3.38;3.08;;;;;;;5.04;57.27;62516.66;5004194;28;20400;-77
2022/01/17 13:05:47;;;;;;;3.17;2.83;;;;;;;4.76;58.33;62487.81;5002513;28;20404;-76
2022/01/17 13:08:14;;;;;;;3.33;3.13;;;;;;;4.81;58.38;62498.00;5004609;28;20488;-77
2022/01/17 13:10:41;;;;;;;4.78;3.17;;;;;;;5.03;57.27;62515.63;5008098;28;20242;-77
2022/01/17 13:13:15;;;;;;;3.78;3.00;;;;;;;5.22;56.21;62537.72;5025435;28;20210;-77
2022/01/17 13:15:53;;;;;;;4.72;3.50;;;;;;;5.10;56.42;62525.34;5015484;28;20243;-77
2022/01/17 13:18:20;;;;;;;4.05;2.60;;;;;;;5.09;55.17;62519.78;5003944;28;20443;-76
2022/01/17 13:20:49;;;;;;;2.83;2.63;;;;;;;5.08;55.60;62523.28;5005005;28;20250;-77
2022/01/17 13:23:25;;;;;;;4.72;2.95;;;;;;;4.87;55.80;62494.09;5006758;28;20203;-77
2022/01/17 13:25:52;;;;;;;2.50;2.30;;;;;;;4.73;56.48;62482.72;5011343;28;20227;-76
2022/01/17 13:28:18;;;;;;;2.72;2.53;;;;;;;4.60;57.07;62471.88;4996499;28;20243;-77
2022/01/17 13:30:46;;;;;;;2.83;2.63;;;;;;;4.66;56.83;62480.56;5003171;28;20231;-76
2022/01/17 13:33:13;;;;;;;3.20;2.92;;;;;;;4.47;57.42;62461.50;5005589;28;20203;-77
2022/01/17 13:35:43;;;;;;;7.72;3.08;;;;;;;4.49;58.04;62460.53;5005000;28;20223;-76
2022/01/17 13:38:19;;;;;;;2.92;2.70;;;;;;;4.59;57.67;62471.34;5004687;28;20227;-77
2022/01/17 13:40:48;;;;;;;3.90;2.30;;;;;;;4.49;56.79;62460.53;5004581;28;20246;-76
2022/01/17 13:43:15;;;;;;;3.80;2.80;;;;;;;4.52;56.09;62461.63;5000233;28;20203;-76
2022/01/17 13:45:45;;;;;;;3.03;2.72;;;;;;;4.47;56.16;62461.00;5010266;28;20265;-76
2022/01/17 13:48:15;;;;;;;2.88;2.50;;;;;;;4.30;56.07;62438.97;5018693;28;20416;-77
2022/01/17 13:50:48;;;;;;;2.45;2.15;;;;;;;4.19;55.41;62427.16;4995649;28;20226;-76
2022/01/17 13:53:18;;;;;;;2.90;2.30;;;;;;;4.07;55.71;62415.31;5003645;28;20213;-77
2022/01/17 13:55:46;;;;;;;2.45;2.25;;;;;;;4.01;55.95;62411.16;5005119;28;20476;-77
2022/01/17 13:58:16;;;;;;;2.72;2.25;;;;;;;3.95;55.76;62408.00;5006196;28;20222;-79
2022/01/17 14:00:46;;;;;;;3.20;2.28;;;;;;;3.88;55.89;62398.31;5003916;28;20235;-77
2022/01/17 14:03:15;;;;;;;3.08;2.78;;;;;;;3.88;55.79;62398.31;5012209;28;20199;-76
2022/01/17 14:05:48;;;;;;;2.75;2.45;;;;;;;3.83;54.99;62392.63;5015913;28;20222;-76
2022/01/17 14:08:25;;;;;;;2.38;2.25;;;;;;;3.82;55.01;62394.63;5001381;28;20607;-76
2022/01/17 14:10:58;;;;;;;2.05;1.70;;;;;;;3.82;54.89;62391.59;5006545;28;20555;-76
2022/01/17 14:13:28;;;;;;;3.78;2.20;;;;;;;3.78;55.33;62387.50;5025442;28;20203;-76
2022/01/17 14:15:55;;;;;;;1.63;1.52;;;;;;;3.71;55.28;62378.28;5024959;28;20539;-77
2022/01/17 14:18:26;;;;;;;3.85;2.33;;;;;;;3.73;55.73;62379.84;5009239;28;20234;-77
2022/01/17 14:20:56;;;;;;;4.75;2.35;;;;;;;3.73;55.74;62385.38;5006262;28;20270;-77
2022/01/17 14:23:30;;;;;;;2.40;2.20;;;;;;;3.73;55.25;62384.88;5007231;28;20199;-76
2022/01/17 14:25:59;;;;;;;1.70;1.60;;;;;;;3.72;55.11;62381.31;4997388;28;20242;-77
2022/01/17 14:28:28;;;;;;;2.28;2.08;;;;;;;3.75;55.47;62382.41;5015240;28;20242;-77
2022/01/17 14:30:56;;;;;;;2.33;2.10;;;;;;;3.79;54.56;62389.03;5007291;28;20270;-76
2022/01/17 14:33:24;;;;;;;2.70;2.55;;;;;;;3.76;55.19;62387.97;5008005;28;20191;-76
2022/01/17 14:36:06;;;;;;;2.25;2.05;;;;;;;3.76;54.65;62387.97;5003632;28;20246;-78
2022/01/17 14:38:41;;;;;;;2.00;1.85;;;;;;;3.77;54.72;62384.47;5007413;28;20215;-77
2022/01/17 14:41:14;;;;;;;2.53;2.22;;;;;;;3.77;55.03;62389.50;5006760;28;20414;-76
2022/01/17 14:43:41;;;;;;;2.88;2.67;;;;;;;3.77;54.95;62388.97;5005844;28;20265;-76
2022/01/17 14:46:09;;;;;;;2.67;2.38;;;;;;;3.69;54.93;62373.72;4998279;28;20247;-77
2022/01/17 14:48:38;;;;;;;1.85;1.67;;;;;;;3.71;54.93;62378.28;5006226;28;20258;-76
2022/01/17 14:51:19;;;;;;;1.75;1.65;;;;;;;3.73;55.10;62379.84;5003897;28;20223;-76
2022/01/17 14:53:51;;;;;;;4.70;3.38;;;;;;;3.61;55.20;62367.50;5005739;28;20195;-76
2022/01/17 15:01:54;;;;;;;3.53;1.95;;;;;;;3.59;55.42;62362.94;4985581;28;20459;-76
2022/01/17 15:04:21;;;;;;;3.42;2.08;;;;;;;3.57;55.75;62365.91;4985563;28;20199;-76
2022/01/17 15:06:48;;;;;;;3.95;2.15;;;;;;;3.60;55.98;62371.50;4985617;28;20275;-76
2022/01/17 15:09:17;;;;;;;2.78;1.73;;;;;;;3.54;55.71;62363.31;4992641;28;20262;-77
2022/01/17 15:11:45;;;;;;;2.75;2.53;;;;;;;3.53;55.51;62362.81;5017448;28;20277;-77
2022/01/17 15:14:12;;;;;;;2.47;1.88;;;;;;;3.50;55.65;62359.72;5020964;28;20497;-77
2022/01/17 15:16:40;;;;;;;2.60;1.95;;;;;;;3.50;55.56;62357.19;5005557;28;20535;-77
2022/01/17 15:19:07;;;;;;;4.50;2.55;;;;;;;3.44;55.50;62355.56;5005247;28;20232;-75
2022/01/17 15:21:34;;;;;;;3.78;2.72;;;;;;;3.44;55.51;62346.00;5007500;28;20216;-77
2022/01/17 15:24:02;;;;;;;2.65;2.45;;;;;;;3.40;55.67;62351.44;5014724;28;20198;-76
2022/01/17 15:26:30;;;;;;;2.80;2.60;;;;;;;3.41;55.36;62347.97;5028722;28;20226;-76
2022/01/17 15:28:57;;;;;;;2.40;2.10;;;;;;;3.37;55.23;62350.88;5010489;28;20235;-76
2022/01/17 15:31:24;;;;;;;2.83;2.20;;;;;;;3.30;55.20;62336.66;5011026;28;20234;-76
2022/01/17 15:33:51;;;;;;;3.25;2.38;;;;;;;3.29;54.93;62345.69;5009543;28;20199;-77
2022/01/17 15:36:18;;;;;;;1.42;1.30;;;;;;;3.33;54.20;62342.25;5008921;28;20424;-76
2022/01/17 15:38:45;;;;;;;2.80;2.50;;;;;;;3.31;54.34;62342.19;5009140;28;20275;-76
2022/01/17 15:41:14;;;;;;;2.60;2.40;;;;;;;3.35;53.67;62344.31;5009355;28;20230;-76
2022/01/17 15:43:44;;;;;;;3.13;1.98;;;;;;;3.34;53.95;62340.75;5007678;28;20222;-77
2022/01/17 15:46:12;;;;;;;2.85;2.55;;;;;;;3.41;53.78;62349.97;5007966;28;20262;-75
2022/01/17 15:48:40;;;;;;;3.00;1.52;;;;;;;3.39;53.64;62345.91;5007664;28;20487;-76
2022/01/17 15:51:07;;;;;;;1.95;1.85;;;;;;;3.39;53.72;62350.94;5009208;28;20223;-77
2022/01/17 15:53:35;;;;;;;2.53;2.08;;;;;;;3.32;54.07;62338.19;5008002;28;20567;-75
2022/01/17 15:56:05;;;;;;;2.40;2.28;;;;;;;3.37;53.55;62343.84;5008130;28;20227;-77
2022/01/17 15:58:31;;;;;;;2.67;2.30;;;;;;;3.37;53.67;62346.34;5003367;28;20226;-76
2022/01/17 16:01:01;;;;;;;3.03;2.08;;;;;;;3.39;53.82;62345.91;5005345;28;20267;-76
2022/01/17 16:03:28;;;;;;;1.92;1.83;;;;;;;3.40;54.04;62351.44;5007793;28;20441;-76
2022/01/17 16:05:55;;;;;;;2.45;2.20;;;;;;;3.35;54.28;62341.25;5009568;28;20231;-76
2022/01/17 16:08:22;;;;;;;1.90;1.70;;;;;;;3.37;53.65;62346.34;5007266;28;20277;-76
2022/01/17 16:10:49;;;;;;;2.20;2.00;;;;;;;3.41;53.58;62349.97;5011362;28;20242;-76
2022/01/17 16:13:17;;;;;;;2.88;2.08;;;;;;;3.37;53.68;62343.84;5027661;28;20202;-76
2022/01/17 16:15:44;;;;;;;1.88;1.77;;;;;;;3.41;53.84;62347.44;5022205;28;20292;-76
2022/01/17 16:18:15;;;;;;;2.53;1.75;;;;;;;3.27;53.67;62335.56;5008251;28;20467;-77
2022/01/17 16:20:44;;;;;;;1.70;1.60;;;;;;;3.34;53.83;62343.28;5007595;28;20226;-76
2022/01/17 16:23:11;;;;;;;3.53;2.03;;;;;;;3.30;54.26;62341.16;5007362;28;20207;-76
2022/01/17 16:25:38;;;;;;;1.52;1.42;;;;;;;3.34;53.89;62340.25;5013154;28;20444;-75
2022/01/17 16:28:06;;;;;;;1.83;1.73;;;;;;;3.33;53.50;62342.25;5006888;28;20290;-77
2022/01/17 16:30:33;;;;;;;1.58;1.55;;;;;;;3.33;53.44;62341.75;5006984;28;20228;-76
2022/01/17 16:33:01;;;;;;;2.60;2.40;;;;;;;3.41;53.42;62353.00;5006939;28;20210;-75
2022/01/17 16:35:29;;;;;;;7.80;3.20;;;;;;;3.47;52.96;62353.59;5007179;28;20237;-76
2022/01/17 16:37:58;;;;;;;3.80;2.72;;;;;;;3.44;52.60;62353.56;5006788;28;20218;-75
2022/01/17 16:40:25;;;;;;;3.75;2.20;;;;;;;3.49;52.68;62358.19;5007883;28;20227;-76
2022/01/17 16:42:52;;;;;;;1.50;1.40;;;;;;;3.55;52.21;62364.84;5006221;28;20211;-76
2022/01/17 16:45:19;;;;;;;4.40;3.90;;;;;;;3.63;51.43;62369.53;5007649;28;20273;-76
2022/01/17 16:47:46;;;;;;;2.13;1.90;;;;;;;3.72;51.48;62378.81;5007264;28;20269;-76
2022/01/17 16:50:13;;;;;;;3.05;2.33;;;;;;;3.70;51.82;62376.75;5005985;28;20207;-75
2022/01/17 16:52:42;;;;;;;1.77;1.67;;;;;;;3.73;51.91;62382.84;5000567;28;20243;-76
2022/01/17 16:55:10;;;;;;;1.52;1.40;;;;;;;3.72;51.63;62381.84;5009410;28;20200;-77
2022/01/17 16:57:37;;;;;;;1.90;1.70;;;;;;;3.82;51.52;62391.59;5009508;28;20431;-77
2022/01/17 17:00:05;;;;;;;1.50;1.33;;;;;;;3.78;51.99;62382.97;5010058;28;20210;-76
2022/01/17 17:02:32;;;;;;;1.13;1.13;;;;;;;3.77;51.78;62386.47;4991751;28;20208;-77
2022/01/17 17:04:59;;;;;;;1.52;1.45;;;;;;;3.67;51.70;62374.19;5006679;28;20195;-76
2022/01/17 17:07:27;;;;;;;2.03;1.67;;;;;;;3.58;52.16;62369.44;5022045;28;20258;-76
2022/01/17 17:09:56;;;;;;;1.27;1.23;;;;;;;3.69;52.00;62378.25;5009572;28;20254;-77
2022/01/17 17:12:24;;;;;;;9.45;5.88;;;;;;;3.76;51.43;62385.97;5012395;28;20203;-76
2022/01/17 17:14:51;;;;;;;2.47;2.03;;;;;;;3.81;51.24;62390.56;5004217;28;20203;-78
2022/01/17 17:17:19;;;;;;;1.92;1.48;;;;;;;3.84;51.55;62396.69;5003960;28;20236;-76
2022/01/17 17:19:46;;;;;;;1.85;1.70;;;;;;;3.79;51.62;62386.53;5011426;28;20207;-76
2022/01/17 17:22:15;;;;;;;1.65;1.55;;;;;;;3.85;51.27;62397.72;5012122;28;20227;-78
2022/01/17 17:24:45;;;;;;;1.00;1.00;;;;;;;3.82;50.84;62392.13;5015515;28;20410;-78
2022/01/17 17:27:18;;;;;;;1.50;1.40;;;;;;;3.82;51.00;62391.59;5014032;28;20286;-77
2022/01/17 17:29:50;;;;;;;1.23;1.15;;;;;;;3.91;50.66;62403.91;5015431;28;20243;-79
2022/01/17 17:32:19;;;;;;;1.92;1.27;;;;;;;3.98;50.62;62405.53;5017888;28;20215;-78
2022/01/17 17:34:54;;;;;;;10.93;7.20;;;;;;;4.04;50.56;62414.75;4999227;28;20255;-79
2022/01/17 17:37:22;;;;;;;8.75;6.78;;;;;;;3.95;50.64;62404.97;4996477;28;20243;-79
2022/01/17 17:39:50;;;;;;;1.10;1.10;;;;;;;3.98;50.13;62408.59;4990581;28;20212;-78
2022/01/17 17:42:18;;;;;;;1.58;1.48;;;;;;;3.99;49.86;62409.59;4989013;28;20228;-78
2022/01/17 17:44:47;;;;;;;1.42;1.42;;;;;;;3.99;50.23;62412.13;4995513;28;20204;-77
2022/01/17 17:47:14;;;;;;;1.52;1.42;;;;;;;4.00;50.10;62410.66;4989836;28;20230;-78
2022/01/17 17:49:41;;;;;;;1.58;1.40;;;;;;;4.04;49.53;62411.72;4974274;29;20240;-78
2022/01/17 17:52:09;;;;;;;1.85;1.30;;;;;;;4.12;49.17;62423.00;4983335;28;20251;-77
2022/01/17 17:54:37;;;;;;;0.90;0.90;;;;;;;4.21;48.92;62434.25;4992350;28;20244;-79
2022/01/17 17:57:05;;;;;;;1.73;1.63;;;;;;;4.20;49.07;62433.72;4983917;28;20235;-79
2022/01/17 17:59:34;;;;;;;1.27;1.17;;;;;;;4.18;49.10;62431.16;4985248;28;20255;-77
2022/01/17 18:02:00;;;;;;;5.03;1.80;;;;;;;4.23;49.15;62436.28;4990097;28;20255;-78
2022/01/17 18:04:28;;;;;;;1.70;1.33;;;;;;;4.24;49.02;62440.38;4989954;28;20243;-76
2022/01/17 18:06:55;;;;;;;1.63;1.52;;;;;;;4.24;49.07;62435.34;4981656;28;20228;-76
2022/01/17 18:09:22;;;;;;;1.55;1.25;;;;;;;4.25;49.60;62438.88;4984595;28;20592;-77
2022/01/17 18:11:53;;;;;;;1.00;0.85;;;;;;;4.26;49.24;62439.41;5000913;28;20623;-78
2022/01/17 18:14:33;;;;;;;2.05;1.77;;;;;;;4.30;49.36;62433.41;5016038;28;20432;-78
2022/01/17 18:17:02;;;;;;;0.90;0.90;;;;;;;4.32;48.77;62443.56;4995812;28;20266;-76
2022/01/17 18:19:29;;;;;;;1.10;1.00;;;;;;;4.42;48.96;62453.31;4995999;28;20203;-77
2022/01/17 18:21:56;;;;;;;1.60;1.50;;;;;;;4.38;48.90;62452.25;4990485;28;20251;-77
2022/01/17 18:24:23;;;;;;;1.10;1.05;;;;;;;4.39;48.89;62452.75;4998295;28;20218;-76
2022/01/17 18:26:56;;;;;;;2.28;1.77;;;;;;;4.47;49.88;62453.44;4992633;28;20266;-76
2022/01/17 18:29:23;;;;;;;1.83;1.73;;;;;;;4.50;50.01;62462.06;4990522;28;20227;-76
2022/01/17 18:31:51;;;;;;;1.48;1.38;;;;;;;4.21;49.92;62431.72;4992951;28;20267;-76
2022/01/17 18:34:19;;;;;;;1.67;1.58;;;;;;;4.23;50.38;62433.78;4993200;28;20207;-76
2022/01/17 18:36:47;;;;;;;1.95;1.50;;;;;;;4.22;50.30;62435.28;4992234;28;20220;-75
2022/01/17 18:39:15;;;;;;;2.75;1.40;;;;;;;4.14;50.53;62430.06;4987199;28;20208;-76
2022/01/17 18:41:42;;;;;;;1.60;1.50;;;;;;;4.18;50.41;62434.19;4978127;28;20231;-78
2022/01/17 18:44:09;;;;;;;1.88;1.70;;;;;;;4.09;50.42;62419.38;4976321;28;20215;-77
2022/01/17 18:46:36;;;;;;;1.48;1.02;;;;;;;4.04;50.51;62412.22;4983612;28;20236;-76
2022/01/17 18:49:05;;;;;;;1.27;1.13;;;;;;;4.04;50.64;62414.75;4967691;29;20258;-76
2022/01/17 18:51:35;;;;;;;1.88;1.50;;;;;;;4.07;50.52;62412.28;4989740;28;20228;-78
2022/01/17 18:54:03;;;;;;;1.52;1.42;;;;;;;4.10;50.63;62418.41;4989576;28;20204;-79
2022/01/17 18:56:31;;;;;;;2.42;2.22;;;;;;;4.15;50.54;62423.03;4991481;28;20228;-78
2022/01/17 18:59:00;;;;;;;5.93;4.40;;;;;;;4.15;50.64;62425.56;4993536;28;20268;-78
2022/01/17 19:01:27;;;;;;;9.25;5.53;;;;;;;4.03;51.12;62416.25;4993953;28;20219;-77
2022/01/17 19:03:56;;;;;;;2.85;1.55;;;;;;;4.03;50.99;62413.72;4995418;28;20276;-78
2022/01/17 19:06:23;;;;;;;1.08;1.08;;;;;;;4.05;51.00;62420.31;4995416;28;20239;-77
2022/01/17 19:08:52;;;;;;;1.30;1.20;;;;;;;4.10;50.86;62420.41;4991959;28;20595;-77
2022/01/17 19:11:19;;;;;;;1.38;1.00;;;;;;;4.12;51.07;62420.47;5001043;28;20284;-76
2022/01/17 19:13:48;;;;;;;2.20;1.73;;;;;;;4.12;51.14;62417.44;4997184;28;20407;-77
2022/01/17 19:16:15;;;;;;;1.25;1.25;;;;;;;4.19;50.85;62427.16;4993805;28;20228;-76
2022/01/17 19:21:46;;;;;;;1.30;1.20;;;;;;;4.19;50.72;62427.66;4938844;28;20222;-78
2022/01/17 19:24:18;;;;;;;1.88;1.73;;;;;;;4.18;50.65;62426.13;4999521;28;20254;-78
2022/01/17 19:26:47;;;;;;;1.38;1.27;;;;;;;4.09;50.82;62419.88;5001664;28;20228;-77
2022/01/17 19:29:29;;;;;;;3.33;2.67;;;;;;;4.23;50.96;62436.28;5105782;23;20235;-79
2022/01/17 19:31:56;;;;;;;1.77;1.67;;;;;;;4.23;51.12;62433.78;4970017;28;20225;-78
2022/01/17 19:34:23;;;;;;;1.40;1.30;;;;;;;4.17;51.16;62428.13;4966618;29;20200;-78
2022/01/17 19:36:56;;;;;;;1.98;1.45;;;;;;;4.16;51.11;62434.66;4967945;28;20243;-77
2022/01/17 19:39:25;;;;;;;2.20;2.00;;;;;;;4.16;51.45;62429.09;4974698;28;20362;-77
2022/01/17 19:41:53;;;;;;;1.48;1.38;;;;;;;4.13;51.67;62421.50;4973779;28;20224;-78
2022/01/17 19:44:20;;;;;;;1.75;1.05;;;;;;;4.14;51.66;62425.03;4971646;28;20302;-79
2022/01/17 19:46:47;;;;;;;1.80;1.70;;;;;;;4.12;51.63;62420.47;4972417;28;20613;-77
2022/01/17 19:49:14;;;;;;;3.25;2.85;;;;;;;4.21;51.45;62432.22;4970269;28;20296;-77
2022/01/17 19:51:41;;;;;;;1.67;1.58;;;;;;;4.23;51.53;62436.28;4969099;28;20435;-76
2022/01/17 19:54:08;;;;;;;2.22;1.95;;;;;;;4.22;51.68;62437.78;4965308;28;20209;-77
2022/01/17 19:56:37;;;;;;;1.33;1.33;;;;;;;4.26;51.54;62442.41;4965743;28;20224;-77
2022/01/17 19:59:04;;;;;;;2.80;2.05;;;;;;;4.29;51.49;62443.00;4961646;28;20244;-77
2022/01/17 20:01:31;;;;;;;1.50;1.40;;;;;;;4.25;51.67;62438.34;4966725;28;20221;-77
2022/01/17 20:03:58;;;;;;;1.17;1.17;;;;;;;4.28;51.54;62441.97;4967112;28;20225;-77
2022/01/17 20:06:26;;;;;;;1.40;1.40;;;;;;;4.28;51.67;62438.94;4968125;28;20275;-77
2022/01/17 20:08:52;;;;;;;1.52;1.42;;;;;;;4.31;51.35;62442.53;4966085;29;20208;-77
2022/01/17 20:11:21;;;;;;;1.20;1.10;;;;;;;4.33;51.16;62444.09;4956028;28;20299;-78
2022/01/17 20:13:50;;;;;;;1.95;1.85;;;;;;;4.38;51.58;62449.72;4968309;28;20217;-78
2022/01/17 20:16:22;;;;;;;1.63;1.55;;;;;;;4.38;51.61;62451.75;4972170;28;20236;-76
2022/01/17 20:18:51;;;;;;;2.75;1.70;;;;;;;4.31;51.84;62447.06;4970512;28;20214;-77